createdAt,value
2022-12-17T00:01:08.611Z,12.8
2022-12-17T00:11:08.505Z,12.8
2022-12-17T00:21:08.608Z,12.8
2022-12-17T00:31:08.548Z,12.7
2022-12-17T00:41:08.748Z,12.7
2022-12-17T00:51:08.505Z,13
2022-12-17T01:01:08.671Z,15.1
2022-12-17T01:11:08.697Z,15
2022-12-17T01:21:08.611Z,14.4
2022-12-17T01:31:08.697Z,14
2022-12-17T01:41:08.600Z,13.7
2022-12-17T01:51:08.671Z,13.4
2022-12-17T02:01:08.674Z,13.4
2022-12-17T02:11:08.666Z,15.4
2022-12-17T02:21:08.786Z,15
2022-12-17T02:31:08.663Z,14.5
2022-12-17T02:41:08.857Z,14.1
2022-12-17T02:51:08.665Z,13.7
2022-12-17T03:01:08.808Z,13.5
2022-12-17T03:11:08.645Z,13.4
2022-12-17T03:21:08.774Z,15.5
2022-12-17T03:31:08.677Z,15.4
2022-12-17T03:41:08.772Z,14.8
2022-12-17T03:51:08.662Z,14.4
2022-12-17T04:01:08.817Z,14
2022-12-17T04:11:08.834Z,15.9
2022-12-17T04:21:08.773Z,15.5
2022-12-17T04:31:08.910Z,15
2022-12-17T04:41:08.762Z,14.5
2022-12-17T04:51:08.829Z,15.7
2022-12-17T05:01:08.776Z,16.2
2022-12-17T05:11:08.851Z,15.6
2022-12-17T05:21:08.974Z,15
2022-12-17T05:31:08.867Z,16
2022-12-17T05:41:08.951Z,16.7
2022-12-17T05:51:08.839Z,16
2022-12-17T06:01:08.954Z,15.6
2022-12-17T06:11:08.830Z,16.9
2022-12-17T06:21:08.941Z,17.2
2022-12-17T06:31:08.834Z,16.4
2022-12-17T06:41:08.938Z,16
2022-12-17T06:51:09.007Z,17.1
2022-12-17T07:01:09.152Z,17.6
2022-12-17T07:11:09.010Z,16.9
2022-12-17T07:21:08.922Z,16.3
2022-12-17T07:31:09.070Z,17.3
2022-12-17T07:41:08.926Z,17.7
2022-12-17T07:51:08.994Z,18.1
2022-12-17T08:01:08.938Z,18.2
2022-12-17T08:11:08.978Z,17.5
2022-12-17T08:21:09.102Z,16.7
2022-12-17T08:31:09.045Z,17.4
2022-12-17T08:41:09.149Z,18.2
2022-12-17T08:51:08.986Z,17.7
2022-12-17T09:01:09.173Z,17
2022-12-17T09:11:08.966Z,16.3
2022-12-17T09:21:09.115Z,16.5
2022-12-17T09:31:09.260Z,17.8
2022-12-17T09:41:09.091Z,17.2
2022-12-17T09:51:09.163Z,16.5
2022-12-17T10:01:09.123Z,16.1
2022-12-17T10:11:09.153Z,15.7
2022-12-17T10:21:09.091Z,15.6
2022-12-17T10:31:09.228Z,15.2
2022-12-17T10:41:09.071Z,15
2022-12-17T10:51:09.166Z,15.2
2022-12-17T11:01:09.471Z,15.1
2022-12-17T11:11:09.157Z,15.1
2022-12-17T11:21:09.217Z,15
2022-12-17T11:31:09.392Z,15
2022-12-17T11:41:09.170Z,14.7
2022-12-17T11:51:09.271Z,14.6
2022-12-17T12:01:09.160Z,14.7
2022-12-17T12:11:09.231Z,14.5
2022-12-17T12:21:09.172Z,14.7
2022-12-17T12:31:09.547Z,14.7
2022-12-17T12:41:09.564Z,14.8
2022-12-17T12:51:09.388Z,14.9
2022-12-17T13:01:09.591Z,14.6
2022-12-17T13:11:09.428Z,14.5
2022-12-17T13:21:09.547Z,14.4
2022-12-17T13:31:09.389Z,14.3
2022-12-17T13:41:10.280Z,14.3
2022-12-17T13:51:09.242Z,14.3
2022-12-17T14:01:09.463Z,14.1
2022-12-17T14:11:09.449Z,14
2022-12-17T14:21:09.428Z,14
2022-12-17T14:41:09.448Z,14.2
2022-12-17T14:51:09.299Z,13.9
2022-12-17T15:01:09.498Z,13.9
2022-12-17T15:11:09.307Z,13.9
2022-12-17T15:21:09.453Z,13.8
2022-12-17T15:31:09.627Z,13.7
2022-12-17T15:41:09.421Z,13.7
2022-12-17T15:51:09.484Z,13.7
2022-12-17T16:01:09.575Z,13.7
2022-12-17T16:11:09.513Z,13.5
2022-12-17T16:21:09.406Z,13.6
2022-12-17T16:31:09.559Z,13.5
2022-12-17T16:41:10.018Z,13.5
2022-12-17T16:51:09.768Z,13.5
2022-12-17T17:01:09.845Z,15.7
2022-12-17T17:11:09.519Z,17
2022-12-17T17:21:09.618Z,16.4
2022-12-17T17:31:09.479Z,15.7
2022-12-17T17:41:09.606Z,16.4
2022-12-17T17:51:09.495Z,17.2
2022-12-17T18:01:09.631Z,16.5
2022-12-17T18:11:09.547Z,15.9
2022-12-17T18:21:09.726Z,15.6
2022-12-17T18:31:09.704Z,16
2022-12-17T18:41:09.785Z,16.4
2022-12-17T18:51:10.383Z,15.9
2022-12-17T19:01:10.584Z,15.6
2022-12-17T19:11:10.084Z,15.4
2022-12-17T19:21:10.477Z,15.3
2022-12-17T19:31:11.358Z,15
2022-12-17T19:41:09.832Z,14.7
2022-12-17T19:51:09.825Z,14.6
2022-12-17T20:01:09.701Z,14.5
2022-12-17T20:11:09.764Z,14.4
2022-12-17T20:21:09.704Z,14.5
2022-12-17T20:31:09.769Z,14.6
2022-12-17T20:41:09.864Z,14.5
2022-12-17T20:51:09.796Z,14.5
2022-12-17T21:01:09.773Z,14.5
2022-12-17T21:11:09.773Z,14.5
2022-12-17T21:21:09.685Z,14.5
2022-12-17T21:31:09.852Z,14.2
2022-12-17T21:41:09.914Z,14.1
2022-12-17T21:51:09.769Z,14
2022-12-17T22:01:09.918Z,13.9
2022-12-17T22:11:09.787Z,13.9
2022-12-17T22:21:09.900Z,13.9
2022-12-17T22:31:09.991Z,13.9
2022-12-17T22:42:02.930Z,13.8
2022-12-17T22:51:10.536Z,13.8
2022-12-17T23:01:09.878Z,13.7
2022-12-17T23:11:09.774Z,13.7
2022-12-17T23:21:09.894Z,13.7
2022-12-17T23:31:10.017Z,13.8
2022-12-17T23:41:09.875Z,13.7
2022-12-17T23:51:09.948Z,13.6
